• Join FlightAware (Why Join?)
  • Login
  • US Flag 
12:18PM EDT


 

Airport Tracker/Info


-or-


 

Live Flight TrackerFlight Track Log ✈ SWA2141 ✈ 13-Apr-2014 ✈ KLGA - KSTL

Flight Track Log - Related Links

Times and Time Zones

All times are in EDT time to prevent confusion due to time zone crossing. See the SWA2141 flight status page for this flight to view local times or setup timezone preferences in your user account.

Time Position Orientation Groundspeed Altitude Reporting Facility
EDT Latitude Longitude Course Direction KTS MPH feet Rate Location/Type
01:23PM 40.7333 -73.8333 270° West 188 216 2,200  Level New York TRACON
01:24PM 40.6833 -73.8500 194° South 200 230 5,400 3,180 Climbing New York TRACON
01:25PM 40.6833 -73.9333 270° West 225 259 8,600 2,880 Climbing New York TRACON
01:26PM 40.7167 -74.0000 303° West 273 314 10,900 2,580 Climbing New York TRACON
01:27PM 40.7333 -74.1167 281° West 323 372 13,800 2,040 Climbing New York TRACON
01:28PM 40.7333 -74.2500 270° West 375 432 15,000 1,140 Climbing New York TRACON
01:29PM 40.7833 -74.6310 270° West  Level FlightAware Approximate
01:29PM 40.7500 -74.3833 279° West 337 388 16,200  Level New York TRACON
01:31PM 40.7600 -74.5325 275° West 349 402 17,000 1,140 Climbing New York Center
01:32PM 40.7719 -74.6758 276° West 355 409 18,900 2,220 Climbing New York Center
01:33PM 40.7800 -74.8106 275° West 362 417 21,500 2,460 Climbing New York Center
01:34PM 40.7897 -74.9481 275° West 374 430 23,900 2,220 Climbing New York Center
01:35PM 40.7619 -75.0833 255° West 379 436 26,000 1,920 Climbing New York Center
01:36PM 40.7217 -75.2178 248° West 387 445 27,800 1,680 Climbing New York Center
01:37PM 40.6808 -75.3603 249° West 401 461 29,400 1,800 Climbing New York Center
01:38PM 40.6397 -75.5022 249° West 413 475 31,500 2,040 Climbing New York Center
01:39PM 40.5986 -75.6444 249° West 413 475 33,500 1,800 Climbing New York Center
01:40PM 40.5594 -75.7808 249° West 413 475 35,200 1,500 Climbing New York Center
01:41PM 40.5181 -75.9172 248° West 413 475 36,600 1,380 Climbing New York Center
01:42PM 40.4775 -76.0342 246° West 406 467 38,000 660 Climbing New York Center
01:43PM 40.4381 -76.1703 249° West 401 461 38,000  Level New York Center
01:44PM 40.3983 -76.3089 249° West 401 461 38,000  Level New York Center
01:45PM 40.3586 -76.4419 249° West 401 461 38,000  Level New York Center
01:46PM 40.3211 -76.5722 249° West 401 461 38,000  Level New York Center
01:47PM 40.2953 -76.7144 257° West 401 461 38,000  Level New York Center
01:48PM 40.2861 -76.8553 265° West 396 456 38,000  Level New York Center
01:49PM 40.2806 -76.9989 267° West 391 450 38,000  Level New York Center
01:50PM 40.2708 -77.1422 265° West 391 450 38,000  Level New York Center
01:51PM 40.2647 -77.2914 267° West 391 450 38,000  Level New York Center
01:51PM 40.2606 -77.3903 267° West 392 451 38,000  Level Cleveland Center
01:52PM 40.2531 -77.5308 266° West 392 451 38,000  Level Cleveland Center
01:53PM 40.2472 -77.6761 267° West 395 455 38,000  Level Cleveland Center
01:54PM 40.2464 -77.8183 270° West 395 455 38,000  Level Cleveland Center
01:55PM 40.2436 -77.9767 269° West 392 451 38,000  Level Cleveland Center
01:56PM 40.2417 -78.1206 269° West 394 453 38,000  Level Cleveland Center
01:57PM 40.2389 -78.2653 269° West 395 455 38,000  Level Cleveland Center
01:58PM 40.2367 -78.4114 269° West 399 459 38,000  Level Cleveland Center
01:59PM 40.2339 -78.5553 269° West 399 459 38,000  Level Cleveland Center
02:00PM 40.2308 -78.7003 268° West 399 459 38,000  Level Cleveland Center
02:02PM 40.2281 -78.8697 269° West 393 452 38,000  Level Cleveland Center
02:03PM 40.2244 -79.0122 268° West 391 450 38,000  Level Cleveland Center
02:04PM 40.2214 -79.1506 268° West 386 444 38,000  Level Cleveland Center
02:05PM 40.2181 -79.2878 268° West 383 441 38,000  Level Cleveland Center
02:06PM 40.2139 -79.4319 268° West 382 440 38,000  Level Cleveland Center
02:07PM 40.2103 -79.5692 268° West 380 437 38,000  Level Cleveland Center
02:08PM 40.2047 -79.7067 267° West 379 436 38,000  Level Cleveland Center
02:09PM 40.2014 -79.8461 268° West 380 437 38,000  Level Cleveland Center
02:10PM 40.1953 -80.0150 267° West 381 438 38,000  Level Cleveland Center
02:11PM 40.1914 -80.1575 268° West 384 442 38,000  Level Cleveland Center
02:12PM 40.1864 -80.2994 267° West 386 444 38,000  Level Cleveland Center
02:13PM 40.1814 -80.4417 267° West 387 445 38,000  Level Cleveland Center
02:14PM 40.1761 -80.5819 267° West 387 445 38,000  Level Cleveland Center
02:15PM 40.1714 -80.7217 268° West 387 445 38,000  Level Cleveland Center
02:16PM 40.1661 -80.8622 267° West 386 444 38,000  Level Cleveland Center
02:17PM 40.1597 -81.0006 267° West 385 443 38,000  Level Cleveland Center
02:18PM 40.1531 -81.1700 267° West 389 448 38,000  Level Cleveland Center
02:19PM 40.1458 -81.3097 266° West 388 447 38,000  Level Cleveland Center
02:20PM 40.1408 -81.4506 267° West 388 447 38,000  Level Cleveland Center
02:21PM 40.1336 -81.5894 266° West 387 445 38,000  Level Cleveland Center
02:22PM 40.1272 -81.7439 267° West 387 445 38,000  Level Cleveland Center
02:23PM 40.1231 -81.8281 266° West 386 444 38,000  Level Indianapolis Center
02:24PM 40.1169 -81.9656 267° West 385 443 38,000  Level Indianapolis Center
02:25PM 40.1097 -82.1047 266° West 385 443 38,000  Level Indianapolis Center
02:26PM 40.1011 -82.2672 266° West 380 437 38,000  Level Indianapolis Center
02:27PM 40.0944 -82.4025 266° West 378 435 38,000  Level Indianapolis Center
02:28PM 40.0864 -82.5372 266° West 377 434 38,000  Level Indianapolis Center
02:29PM 40.0789 -82.6731 266° West 377 434 38,000  Level Indianapolis Center
02:30PM 40.0714 -82.8081 266° West 377 434 38,000  Level Indianapolis Center
02:31PM 40.0639 -82.9431 266° West 377 434 38,000  Level Indianapolis Center
02:32PM 40.0564 -83.0764 266° West 375 432 38,000  Level Indianapolis Center
02:33PM 40.0467 -83.2364 266° West 375 432 38,000  Level Indianapolis Center
02:34PM 40.0394 -83.3686 266° West 374 430 38,000  Level Indianapolis Center
02:35PM 40.0311 -83.5014 265° West 374 430 38,000  Level Indianapolis Center
02:36PM 40.0225 -83.6344 265° West 374 430 38,000  Level Indianapolis Center
02:37PM 40.0128 -83.7947 266° West 374 430 38,000  Level Indianapolis Center
02:38PM 40.0031 -83.9286 265° West 374 430 38,000  Level Indianapolis Center
02:39PM 39.9942 -84.0636 265° West 374 430 38,000  Level Indianapolis Center
02:40PM 39.9847 -84.1983 265° West 374 430 38,000  Level Indianapolis Center
02:41PM 39.9750 -84.3336 265° West 374 430 38,000  Level Indianapolis Center
02:42PM 39.9656 -84.4717 265° West 378 435 38,000  Level Indianapolis Center
02:43PM 39.9531 -84.6364 264° West 380 437 38,000  Level Indianapolis Center
02:44PM 39.9436 -84.7747 265° West 381 438 38,000  Level Indianapolis Center
02:46PM 39.9339 -84.8975 264° West 382 440 38,000  Level Indianapolis Center
02:47PM 39.9222 -85.0636 265° West 382 440 38,000  Level Indianapolis Center
02:48PM 39.9108 -85.2014 264° West 382 440 38,000  Level Indianapolis Center
02:49PM 39.9003 -85.3375 264° West 382 440 38,000  Level Indianapolis Center
02:50PM 39.8900 -85.4711 264° West 378 435 38,000  Level Indianapolis Center
02:51PM 39.8792 -85.6036 264° West 374 430 38,000  Level Indianapolis Center
02:52PM 39.8683 -85.7350 264° West 371 427 38,000  Level Indianapolis Center
02:53PM 39.8572 -85.8669 264° West 370 426 38,000 -300 Level Indianapolis Center
02:54PM 39.8444 -86.0244 264° West 370 426 37,500 -720 Descending Indianapolis Center
02:55PM 39.8333 -86.1553 264° West 370 426 36,600 -780 Descending Indianapolis Center
02:56PM 39.8206 -86.2983 263° West 370 426 36,000 -300 Descending Indianapolis Center
02:57PM 39.7972 -86.4400 258° West 376 433 36,000  Level Indianapolis Center
02:58PM 39.7658 -86.5681 252° West 376 433 36,000  Level Indianapolis Center
02:59PM 39.7333 -86.6967 252° West 376 433 36,000  Level Indianapolis Center
03:00PM 39.7019 -86.8264 253° West 376 433 36,000  Level Indianapolis Center
03:01PM 39.6692 -86.9550 252° West 376 433 36,000  Level Indianapolis Center
03:02PM 39.6375 -87.0844 252° West 376 433 36,000  Level Indianapolis Center
03:03PM 39.5983 -87.2403 252° West 377 434 36,000  Level Indianapolis Center
03:04PM 39.5650 -87.3700 252° West 377 434 36,000  Level Indianapolis Center
03:05PM 39.5322 -87.4992 252° West 377 434 36,000 -60 Level Indianapolis Center
03:06PM 39.4997 -87.6281 252° West 377 434 35,900 -540 Descending Indianapolis Center
03:07PM 39.4669 -87.7567 252° West 377 434 34,900 -1,500 Descending Indianapolis Center
03:08PM 39.4331 -87.8894 252° West 381 438 32,900 -2,400 Descending Indianapolis Center
03:09PM 39.3914 -88.0483 251° West 387 445 30,000 -1,380 Descending Indianapolis Center
03:10PM 39.3575 -88.1786 251° West 384 442 30,000  Level Kansas City Center
03:11PM 39.3239 -88.3061 251° West 380 437 30,000  Level Kansas City Center
03:12PM 39.2833 -88.4589 251° West 379 436 30,000  Level Kansas City Center
03:13PM 39.2492 -88.5864 251° West 378 435 30,000  Level Kansas City Center
03:14PM 39.2197 -88.6961 251° West 378 435 30,000 -1,320 Level Kansas City Center
03:16PM 39.1853 -88.8194 250° West 373 429 27,400 -2,880 Descending Kansas City Center
03:17PM 39.1475 -88.9650 252° West 362 417 24,100 -2,760 Descending Kansas City Center
03:18PM 39.1197 -89.0683 251° West 350 403 21,700 -2,280 Descending Kansas City Center
03:19PM 39.0900 -89.1786 251° West 332 382 19,500 -2,220 Descending Kansas City Center
03:20PM 39.0628 -89.3022 254° West 330 380 17,200 -1,980 Descending Kansas City Center
03:21PM 39.0364 -89.4058 252° West 321 369 15,500 -1,860 Descending Kansas City Center
03:22PM 39.0108 -89.5289 255° West 312 359 13,400 -1,920 Descending Kansas City Center
03:23PM 38.9761 -89.6194 244° Southwest 287 330 11,600 -1,680 Descending Kansas City Center
03:24PM 38.9167 -89.6939 224° Southwest 278 320 10,000 -960 Descending Kansas City Center
03:25PM 38.8608 -89.7647 225° Southwest 284 327 9,700 -840 Descending Kansas City Center
03:26PM 38.8131 -89.8342 229° Southwest 266 306 8,400 -1,320 Descending Kansas City Center
03:27PM 38.8164 -89.9258 273° West 257 296 7,000 -1,260 Descending Kansas City Center
03:28PM 38.8211 -90.0150 274° West 254 292 5,800 -1,140 Descending Kansas City Center
03:29PM 38.8278 -90.0983 276° West 240 276 4,700 -1,080 Descending Kansas City Center
03:30PM 38.8283 -90.1733 271° West 216 249 3,600 -1,140 Descending Kansas City Center
03:31PM 38.8003 -90.2469 244° Southwest 194 223 2,400 -1,020 Descending Kansas City Center
03:32PM 38.7811 -90.2956 243° Southwest 159 183 1,600 -780 Descending Kansas City Center
03:33PM 38.7647 -90.3356 242° Southwest 134 154 900 -540 Descending Kansas City Center
03:34PM 38.7497 -90.3722 242° Southwest 133 153 500 -420 Descending Kansas City Center
03:38PM 38.7487 -90.3700 169° South  Level Estimated